sensor_id;sensor_type;location;lat;lon;timestamp;temperature;humidity
7248;DHT22;3665;51.034;13.642;2022-09-13T00:02:00;11.30;99.90
7248;DHT22;3665;51.034;13.642;2022-09-13T00:09:14;11.20;99.90
7248;DHT22;3665;51.034;13.642;2022-09-13T00:15:27;11.10;1.00
7248;DHT22;3665;51.034;13.642;2022-09-13T00:20:47;10.90;99.90
7248;DHT22;3665;51.034;13.642;2022-09-13T00:26:32;10.80;99.90
7248;DHT22;3665;51.034;13.642;2022-09-13T00:31:59;10.80;99.90
7248;DHT22;3665;51.034;13.642;2022-09-13T01:04:31;11.60;1.00
7248;DHT22;3665;51.034;13.642;2022-09-13T01:11:06;11.60;1.00
7248;DHT22;3665;51.034;13.642;2022-09-13T01:17:58;11.70;1.00
7248;DHT22;3665;51.034;13.642;2022-09-13T01:48:54;12.00;99.30
7248;DHT22;3665;51.034;13.642;2022-09-13T01:54:31;12.10;67.70
7248;DHT22;3665;51.034;13.642;2022-09-13T02:00:17;12.10;58.90
7248;DHT22;3665;51.034;13.642;2022-09-13T02:06:07;12.10;43.10
7248;DHT22;3665;51.034;13.642;2022-09-13T02:11:04;12.00;30.50
7248;DHT22;3665;51.034;13.642;2022-09-13T02:16:33;12.00;38.00
7248;DHT22;3665;51.034;13.642;2022-09-13T02:27:34;11.90;55.20
7248;DHT22;3665;51.034;13.642;2022-09-13T02:33:20;12.00;44.30
7248;DHT22;3665;51.034;13.642;2022-09-13T02:45:06;12.20;23.10
7248;DHT22;3665;51.034;13.642;2022-09-13T03:03:04;12.80;1.00
7248;DHT22;3665;51.034;13.642;2022-09-13T03:09:21;12.70;1.00
7248;DHT22;3665;51.034;13.642;2022-09-13T03:15:18;12.60;1.00
7248;DHT22;3665;51.034;13.642;2022-09-13T03:21:14;12.70;1.00
7248;DHT22;3665;51.034;13.642;2022-09-13T03:28:05;12.50;1.00
7248;DHT22;3665;51.034;13.642;2022-09-13T03:32:58;12.50;1.00
7248;DHT22;3665;51.034;13.642;2022-09-13T03:44:56;12.40;1.00
7248;DHT22;3665;51.034;13.642;2022-09-13T03:50:31;12.40;1.00
7248;DHT22;3665;51.034;13.642;2022-09-13T03:56:16;12.40;1.00
7248;DHT22;3665;51.034;13.642;2022-09-13T04:04:15;12.50;1.00
7248;DHT22;3665;51.034;13.642;2022-09-13T04:07:45;12.60;1.00
7248;DHT22;3665;51.034;13.642;2022-09-13T04:13:36;12.60;1.00
7248;DHT22;3665;51.034;13.642;2022-09-13T04:19:35;12.60;1.00
7248;DHT22;3665;51.034;13.642;2022-09-13T04:25:06;12.60;1.00
7248;DHT22;3665;51.034;13.642;2022-09-13T04:30:55;12.60;1.00
7248;DHT22;3665;51.034;13.642;2022-09-13T04:36:07;12.60;1.00
7248;DHT22;3665;51.034;13.642;2022-09-13T04:41:40;12.40;1.00
7248;DHT22;3665;51.034;13.642;2022-09-13T04:54:27;12.70;1.00
7248;DHT22;3665;51.034;13.642;2022-09-13T05:07:26;13.10;1.00
7248;DHT22;3665;51.034;13.642;2022-09-13T05:14:13;13.10;1.00
7248;DHT22;3665;51.034;13.642;2022-09-13T05:54:33;14.70;1.00
7248;DHT22;3665;51.034;13.642;2022-09-13T06:20:16;15.80;1.00
7248;DHT22;3665;51.034;13.642;2022-09-13T08:45:09;18.20;1.00
7248;DHT22;3665;51.034;13.642;2022-09-13T09:50:46;20.10;1.00
7248;DHT22;3665;51.034;13.642;2022-09-13T15:43:43;21.70;1.00
7248;DHT22;3665;51.034;13.642;2022-09-13T15:54:41;21.60;1.00
7248;DHT22;3665;51.034;13.642;2022-09-13T15:59:27;21.50;1.00
7248;DHT22;3665;51.034;13.642;2022-09-13T16:04:16;21.50;1.00
7248;DHT22;3665;51.034;13.642;2022-09-13T16:09:38;21.50;1.00
7248;DHT22;3665;51.034;13.642;2022-09-13T16:15:14;21.30;1.00
7248;DHT22;3665;51.034;13.642;2022-09-13T16:21:02;21.30;1.00
7248;DHT22;3665;51.034;13.642;2022-09-13T16:25:55;21.10;1.00
7248;DHT22;3665;51.034;13.642;2022-09-13T16:31:36;21.00;1.00
7248;DHT22;3665;51.034;13.642;2022-09-13T16:37:19;20.90;1.00
7248;DHT22;3665;51.034;13.642;2022-09-13T16:42:25;20.80;1.00
7248;DHT22;3665;51.034;13.642;2022-09-13T16:47:12;20.70;1.00
7248;DHT22;3665;51.034;13.642;2022-09-13T16:52:01;20.60;1.00
7248;DHT22;3665;51.034;13.642;2022-09-13T16:56:45;20.50;1.00
7248;DHT22;3665;51.034;13.642;2022-09-13T17:01:37;20.40;1.00
7248;DHT22;3665;51.034;13.642;2022-09-13T17:06:26;20.30;1.00
7248;DHT22;3665;51.034;13.642;2022-09-13T17:11:34;20.20;1.00
7248;DHT22;3665;51.034;13.642;2022-09-13T17:17:21;20.00;1.00
7248;DHT22;3665;51.034;13.642;2022-09-13T17:22:09;20.00;1.00
7248;DHT22;3665;51.034;13.642;2022-09-13T17:26:56;19.90;1.00
7248;DHT22;3665;51.034;13.642;2022-09-13T17:31:44;19.60;1.00
7248;DHT22;3665;51.034;13.642;2022-09-13T17:36:33;19.50;1.00
7248;DHT22;3665;51.034;13.642;2022-09-13T17:41:19;19.40;1.00
7248;DHT22;3665;51.034;13.642;2022-09-13T17:46:10;19.30;1.00
7248;DHT22;3665;51.034;13.642;2022-09-13T17:50:59;19.30;1.00
7248;DHT22;3665;51.034;13.642;2022-09-13T17:55:48;19.10;1.00
7248;DHT22;3665;51.034;13.642;2022-09-13T18:00:32;19.00;1.00
7248;DHT22;3665;51.034;13.642;2022-09-13T18:05:23;18.80;1.00
7248;DHT22;3665;51.034;13.642;2022-09-13T18:10:08;18.60;1.00
7248;DHT22;3665;51.034;13.642;2022-09-13T18:15:55;18.30;1.00
7248;DHT22;3665;51.034;13.642;2022-09-13T18:21:09;18.20;1.00
7248;DHT22;3665;51.034;13.642;2022-09-13T18:26:07;18.10;1.00
7248;DHT22;3665;51.034;13.642;2022-09-13T18:31:21;18.00;1.00
7248;DHT22;3665;51.034;13.642;2022-09-13T18:36:39;17.90;1.00
7248;DHT22;3665;51.034;13.642;2022-09-13T18:41:52;17.90;1.00
7248;DHT22;3665;51.034;13.642;2022-09-13T18:46:40;18.00;1.00
7248;DHT22;3665;51.034;13.642;2022-09-13T18:51:30;17.90;1.00
7248;DHT22;3665;51.034;13.642;2022-09-13T18:56:18;17.90;1.00
7248;DHT22;3665;51.034;13.642;2022-09-13T19:01:05;18.00;1.00
7248;DHT22;3665;51.034;13.642;2022-09-13T19:05:50;18.00;1.00
7248;DHT22;3665;51.034;13.642;2022-09-13T19:10:39;18.00;1.00
7248;DHT22;3665;51.034;13.642;2022-09-13T19:15:28;17.90;1.00
7248;DHT22;3665;51.034;13.642;2022-09-13T19:20:17;17.80;1.00
7248;DHT22;3665;51.034;13.642;2022-09-13T19:25:05;17.70;1.00
7248;DHT22;3665;51.034;13.642;2022-09-13T19:29:52;17.70;1.00
7248;DHT22;3665;51.034;13.642;2022-09-13T19:34:36;17.60;1.00
7248;DHT22;3665;51.034;13.642;2022-09-13T19:39:28;17.40;1.00
7248;DHT22;3665;51.034;13.642;2022-09-13T19:44:16;17.20;1.00
7248;DHT22;3665;51.034;13.642;2022-09-13T19:49:03;17.20;1.00
7248;DHT22;3665;51.034;13.642;2022-09-13T19:53:54;17.20;1.00
7248;DHT22;3665;51.034;13.642;2022-09-13T19:58:39;17.20;1.00
7248;DHT22;3665;51.034;13.642;2022-09-13T20:03:32;17.20;1.00
7248;DHT22;3665;51.034;13.642;2022-09-13T20:08:21;17.00;1.00
7248;DHT22;3665;51.034;13.642;2022-09-13T20:13:05;16.80;1.00
7248;DHT22;3665;51.034;13.642;2022-09-13T20:17:52;16.70;1.00
7248;DHT22;3665;51.034;13.642;2022-09-13T20:22:39;16.60;1.00
7248;DHT22;3665;51.034;13.642;2022-09-13T20:27:26;16.40;1.00
7248;DHT22;3665;51.034;13.642;2022-09-13T20:32:17;16.30;1.00
7248;DHT22;3665;51.034;13.642;2022-09-13T20:37:10;16.30;1.00
7248;DHT22;3665;51.034;13.642;2022-09-13T20:42:09;16.20;1.00
7248;DHT22;3665;51.034;13.642;2022-09-13T20:46:55;16.10;1.00
7248;DHT22;3665;51.034;13.642;2022-09-13T20:51:43;16.10;1.00
7248;DHT22;3665;51.034;13.642;2022-09-13T20:56:31;16.00;1.00
7248;DHT22;3665;51.034;13.642;2022-09-13T21:01:20;16.00;1.00
7248;DHT22;3665;51.034;13.642;2022-09-13T21:06:08;16.00;1.00
7248;DHT22;3665;51.034;13.642;2022-09-13T21:10:55;15.90;5.90
7248;DHT22;3665;51.034;13.642;2022-09-13T21:16:01;15.80;27.50
7248;DHT22;3665;51.034;13.642;2022-09-13T21:21:13;15.60;79.60
7248;DHT22;3665;51.034;13.642;2022-09-13T21:26:13;15.50;99.90
7248;DHT22;3665;51.034;13.642;2022-09-13T21:31:22;15.40;99.90
7248;DHT22;3665;51.034;13.642;2022-09-13T21:36:19;15.40;99.90
7248;DHT22;3665;51.034;13.642;2022-09-13T21:41:04;15.50;99.90
7248;DHT22;3665;51.034;13.642;2022-09-13T21:46:08;15.60;99.90
7248;DHT22;3665;51.034;13.642;2022-09-13T21:51:34;15.60;99.90
